Time;durP1;ratioP1;P1;durP2;ratioP2;P2;SDS_P1;SDS_P2;PMS_P1;PMS_P2;Temp;Humidity;BMP_temperature;BMP_pressure;BME280_temperature;BME280_humidity;BME280_pressure;Samples;Min_cycle;Max_cycle;Signal;HPM_P1;HPM_P2
2022/06/23 00:00:56;;;;;;;10.23;3.60;;;;;;;;;;4882374;29;20044;-79
2022/06/23 00:03:23;;;;;;;5.53;3.65;;;;;;;;;;4905173;29;20076;-79
2022/06/23 00:05:56;;;;;;;8.57;4.15;;;;;;;;;;4896496;29;20080;-78
2022/06/23 00:08:24;;;;;;;5.60;4.00;;;;;;;;;;4903298;29;20107;-78
2022/06/23 00:10:54;;;;;;;6.35;3.60;;;;;;;;;;4885374;29;20056;-79
2022/06/23 00:13:24;;;;;;;10.73;3.58;;;;;;;;;;4895347;29;20041;-78
2022/06/23 00:15:52;;;;;;;8.75;4.03;;;;;;;;;;4896347;29;20048;-79
2022/06/23 00:18:21;;;;;;;8.13;4.15;;;;;;;;;;4896767;29;20864;-79
2022/06/23 00:20:51;;;;;;;7.28;3.60;;;;;;;;;;4895892;29;20870;-78
2022/06/23 00:23:26;;;;;;;6.97;4.35;;;;;;;;;;4878919;29;20127;-78
2022/06/23 00:25:53;;;;;;;;;;;;;;;;;;4901230;29;20099;-79
2022/06/23 00:28:29;;;;;;;7.70;4.15;;;;;;;;;;4895835;29;20583;-78
2022/06/23 00:30:59;;;;;;;6.38;4.28;;;;;;;;;;4876673;29;20215;-79
2022/06/23 00:33:28;;;;;;;10.73;3.92;;;;;;;;;;4882887;29;20065;-79
2022/06/23 00:35:56;;;;;;;7.32;4.35;;;;;;;;;;4879920;29;20136;-79
2022/06/23 00:38:29;;;;;;;8.85;4.30;;;;;;;;;;4903817;29;20115;-79
2022/06/23 00:40:58;;;;;;;6.35;4.03;;;;;;;;;;4880074;29;20112;-79
2022/06/23 00:43:27;;;;;;;6.57;4.25;;;;;;;;;;4879369;29;20477;-78
2022/06/23 00:46:00;;;;;;;8.77;4.18;;;;;;;;;;4894839;29;20135;-79
2022/06/23 00:48:35;;;;;;;12.20;4.32;;;;;;;;;;4894771;29;20124;-78
2022/06/23 00:51:06;;;;;;;5.35;4.18;;;;;;;;;;4906627;29;20414;-78
2022/06/23 00:53:33;;;;;;;11.10;3.95;;;;;;;;;;4903108;29;20052;-78
2022/06/23 00:56:06;;;;;;;7.68;4.43;;;;;;;;;;4895991;29;20084;-79
2022/06/23 00:58:37;;;;;;;10.82;4.18;;;;;;;;;;4877357;29;20044;-79
2022/06/23 01:01:11;;;;;;;7.25;4.40;;;;;;;;;;4879584;29;20140;-78
2022/06/23 01:03:43;;;;;;;9.20;4.82;;;;;;;;;;4896015;29;20054;-78
2022/06/23 01:06:25;;;;;;;10.48;4.88;;;;;;;;;;4875972;29;20056;-79
2022/06/23 01:08:55;;;;;;;10.18;4.97;;;;;;;;;;4877578;29;20088;-79
2022/06/23 01:11:25;;;;;;;11.73;4.63;;;;;;;;;;4879039;29;20510;-79
2022/06/23 01:13:56;;;;;;;7.60;4.93;;;;;;;;;;4886592;29;20140;-78
2022/06/23 01:16:26;;;;;;;9.10;4.53;;;;;;;;;;4868800;29;20491;-78
2022/06/23 01:19:03;;;;;;;9.35;4.28;;;;;;;;;;4895996;29;20079;-79
2022/06/23 01:21:33;;;;;;;11.10;4.95;;;;;;;;;;4878175;29;20140;-79
2022/06/23 01:24:10;;;;;;;9.18;4.30;;;;;;;;;;4876140;29;20159;-78
2022/06/23 01:26:49;;;;;;;9.00;4.45;;;;;;;;;;4895873;29;20543;-78
2022/06/23 01:29:28;;;;;;;6.10;4.43;;;;;;;;;;4888331;29;20100;-79
2022/06/23 01:31:58;;;;;;;9.30;4.07;;;;;;;;;;4895244;29;20135;-78
2022/06/23 01:34:48;;;;;;;8.38;4.45;;;;;;;;;;4877196;29;20062;-78
2022/06/23 01:37:18;;;;;;;10.98;4.85;;;;;;;;;;4836711;29;20049;-78
2022/06/23 01:39:49;;;;;;;9.35;5.28;;;;;;;;;;4900140;29;20127;-79
2022/06/23 01:42:16;;;;;;;9.23;4.85;;;;;;;;;;4878719;29;20144;-79
2022/06/23 01:44:43;;;;;;;7.55;5.05;;;;;;;;;;4893976;29;20088;-79
2022/06/23 01:47:14;;;;;;;9.38;5.32;;;;;;;;;;4900041;29;20454;-79
2022/06/23 01:49:44;;;;;;;5.93;4.38;;;;;;;;;;4881373;29;20087;-79
2022/06/23 01:52:13;;;;;;;6.25;4.32;;;;;;;;;;4882832;29;20088;-79
2022/06/23 01:54:40;;;;;;;12.07;5.72;;;;;;;;;;4882915;29;20140;-79
2022/06/23 01:57:07;;;;;;;9.32;4.47;;;;;;;;;;4882033;29;20088;-79
2022/06/23 01:59:54;;;;;;;5.55;3.97;;;;;;;;;;4905138;29;20087;-79
2022/06/23 02:02:33;;;;;;;8.35;4.22;;;;;;;;;;4898200;29;20506;-79
2022/06/23 02:05:11;;;;;;;7.88;4.60;;;;;;;;;;4878782;29;20101;-79
2022/06/23 02:07:41;;;;;;;7.50;4.35;;;;;;;;;;4899571;29;20112;-79
2022/06/23 02:10:27;;;;;;;7.70;4.07;;;;;;;;;;4907686;29;20517;-79
2022/06/23 02:12:57;;;;;;;8.02;4.68;;;;;;;;;;4881952;29;20119;-78
2022/06/23 02:15:29;;;;;;;10.70;4.45;;;;;;;;;;4899048;29;20063;-79
2022/06/23 02:18:06;;;;;;;16.77;5.03;;;;;;;;;;4880005;29;20231;-79
2022/06/23 02:20:38;;;;;;;5.90;4.03;;;;;;;;;;4883276;29;20087;-79
2022/06/23 02:23:06;;;;;;;8.90;4.60;;;;;;;;;;4898713;29;20144;-79
2022/06/23 02:25:35;;;;;;;7.63;4.38;;;;;;;;;;4882338;29;20111;-79
2022/06/23 02:28:15;;;;;;;7.18;4.38;;;;;;;;;;4899506;29;20049;-78
2022/06/23 02:30:48;;;;;;;9.13;4.63;;;;;;;;;;4909744;29;20060;-78
2022/06/23 02:33:18;;;;;;;9.10;5.00;;;;;;;;;;4900021;29;20063;-78
2022/06/23 02:35:55;;;;;;;8.35;4.88;;;;;;;;;;4901221;29;20075;-78
2022/06/23 02:38:45;;;;;;;9.45;5.72;;;;;;;;;;4898374;29;20139;-79
2022/06/23 02:41:18;;;;;;;8.23;4.60;;;;;;;;;;4880144;29;20053;-79
2022/06/23 02:43:45;;;;;;;7.50;4.63;;;;;;;;;;4880267;29;20057;-79
2022/06/23 02:46:24;;;;;;;13.52;4.80;;;;;;;;;;4897472;29;20057;-79
2022/06/23 02:49:04;;;;;;;6.78;4.35;;;;;;;;;;4898212;29;20060;-79
2022/06/23 02:51:41;;;;;;;7.63;4.53;;;;;;;;;;4880590;29;20114;-79
2022/06/23 02:54:17;;;;;;;9.70;4.95;;;;;;;;;;4881882;29;20151;-79
2022/06/23 02:57:01;;;;;;;7.95;5.13;;;;;;;;;;4900402;29;20040;-79
2022/06/23 02:59:33;;;;;;;6.95;4.25;;;;;;;;;;4908924;29;20127;-79
2022/06/23 03:02:05;;;;;;;5.57;3.72;;;;;;;;;;4899711;29;20076;-79
2022/06/23 03:04:40;;;;;;;6.22;3.95;;;;;;;;;;4897861;29;20049;-78
2022/06/23 03:07:21;;;;;;;6.32;4.35;;;;;;;;;;4897245;29;20064;-79
2022/06/23 03:09:53;;;;;;;7.95;4.07;;;;;;;;;;4895315;29;20117;-79
2022/06/23 03:12:30;;;;;;;9.80;5.00;;;;;;;;;;4897409;29;20076;-79
2022/06/23 03:15:01;;;;;;;6.43;5.10;;;;;;;;;;4888986;29;20775;-78
2022/06/23 03:17:34;;;;;;;6.82;4.63;;;;;;;;;;4880555;29;20165;-79
2022/06/23 03:20:20;;;;;;;9.25;4.97;;;;;;;;;;4897170;29;20597;-78
2022/06/23 03:23:07;;;;;;;10.10;5.30;;;;;;;;;;4893626;29;20044;-79
2022/06/23 03:25:40;;;;;;;12.93;5.25;;;;;;;;;;4880466;29;20080;-79
2022/06/23 03:28:25;;;;;;;7.75;5.18;;;;;;;;;;4897384;29;20080;-78
2022/06/23 03:31:01;;;;;;;9.43;4.75;;;;;;;;;;4892257;29;20625;-78
2022/06/23 03:33:35;;;;;;;10.93;4.82;;;;;;;;;;4897192;29;20057;-78
2022/06/23 03:36:24;;;;;;;14.03;4.80;;;;;;;;;;4886254;29;20056;-78
2022/06/23 03:41:43;;;;;;;10.57;4.70;;;;;;;;;;4880672;29;20056;-78
2022/06/23 03:44:25;;;;;;;11.88;5.95;;;;;;;;;;4897057;29;20100;-79
2022/06/23 03:47:01;;;;;;;11.60;5.60;;;;;;;;;;4897633;29;20087;-78
2022/06/23 03:49:43;;;;;;;8.55;5.30;;;;;;;;;;4878325;29;20198;-78
2022/06/23 03:52:17;;;;;;;6.40;4.63;;;;;;;;;;4901410;29;20060;-78
2022/06/23 03:54:50;;;;;;;7.97;4.80;;;;;;;;;;4890542;29;20147;-79
2022/06/23 03:57:22;;;;;;;6.43;4.50;;;;;;;;;;4895969;29;20083;-78
2022/06/23 04:00:24;;;;;;;10.98;5.43;;;;;;;;;;4887561;29;20080;-78
2022/06/23 04:03:11;;;;;;;9.15;5.30;;;;;;;;;;4833976;29;20474;-78
2022/06/23 04:06:02;;;;;;;11.32;5.57;;;;;;;;;;4880643;29;20060;-79
2022/06/23 04:08:33;;;;;;;12.70;7.28;;;;;;;;;;4897888;29;20095;-78
2022/06/23 04:11:43;;;;;;;19.77;7.70;;;;;;;;;;4893546;29;20088;-79
2022/06/23 04:13:55;;;;;;;20.10;8.43;;;;;;;;;;4895671;29;20067;-79
2022/06/23 04:16:24;;;;;;;112.78;13.15;;;;;;;;;;4882716;29;20053;-79
2022/06/23 04:18:52;;;;;;;27.95;11.25;;;;;;;;;;4895883;29;20100;-78
2022/06/23 04:21:21;;;;;;;299.50;18.55;;;;;;;;;;4895649;29;20128;-79
2022/06/23 04:23:54;;;;;;;57.72;11.70;;;;;;;;;;4895882;29;20065;-79
2022/06/23 04:26:26;;;;;;;100.75;12.10;;;;;;;;;;4896629;29;20690;-78
2022/06/23 04:29:09;;;;;;;29.42;11.70;;;;;;;;;;4876377;29;20049;-79
2022/06/23 04:31:53;;;;;;;19.63;11.18;;;;;;;;;;4888845;29;20474;-79
2022/06/23 04:34:27;;;;;;;17.05;10.48;;;;;;;;;;4897347;29;20080;-79
2022/06/23 04:36:54;;;;;;;20.92;10.75;;;;;;;;;;4879088;29;20139;-79
2022/06/23 04:39:24;;;;;;;19.33;11.10;;;;;;;;;;4900119;29;20104;-79
2022/06/23 04:41:58;;;;;;;18.60;10.80;;;;;;;;;;4871950;29;20088;-80
2022/06/23 04:44:28;;;;;;;18.08;10.95;;;;;;;;;;4891236;29;20148;-79
2022/06/23 04:46:58;;;;;;;25.92;11.68;;;;;;;;;;4892059;29;20121;-80
2022/06/23 04:49:31;;;;;;;18.15;10.00;;;;;;;;;;4882043;29;20112;-79
2022/06/23 04:52:01;;;;;;;21.80;10.43;;;;;;;;;;4892752;29;20084;-80
2022/06/23 04:54:33;;;;;;;15.50;9.13;;;;;;;;;;4893605;29;20463;-81
2022/06/23 04:57:36;;;;;;;15.57;9.45;;;;;;;;;;4896343;29;20084;-79
2022/06/23 05:00:04;;;;;;;17.48;10.23;;;;;;;;;;4819532;29;20077;-77
2022/06/23 05:02:33;;;;;;;16.98;10.32;;;;;;;;;;4865920;29;20151;-78
2022/06/23 05:05:10;;;;;;;18.58;10.65;;;;;;;;;;4876971;29;20060;-80
2022/06/23 05:07:43;;;;;;;23.70;12.45;;;;;;;;;;4877562;29;20502;-80
2022/06/23 05:10:37;;;;;;;17.90;11.18;;;;;;;;;;4894138;29;20092;-81
2022/06/23 05:13:06;;;;;;;18.08;10.73;;;;;;;;;;4872773;29;20506;-78
2022/06/23 05:15:36;;;;;;;17.52;10.95;;;;;;;;;;4894706;29;20076;-88
2022/06/23 05:18:15;;;;;;;21.00;12.18;;;;;;;;;;4877756;29;20052;-79
2022/06/23 05:20:56;;;;;;;18.65;11.18;;;;;;;;;;4895854;29;20139;-79
2022/06/23 05:23:31;;;;;;;19.77;11.70;;;;;;;;;;4872744;29;20724;-81
2022/06/23 05:25:58;;;;;;;;;;;;;;;;;;4892164;29;20076;-82
2022/06/23 05:28:28;;;;;;;24.50;11.93;;;;;;;;;;4877324;29;20006;-81
2022/06/23 05:30:58;;;;;;;22.88;11.73;;;;;;;;;;4887483;29;20400;-79
2022/06/23 05:33:31;;;;;;;20.98;11.63;;;;;;;;;;4882001;29;20052;-77
2022/06/23 05:36:00;;;;;;;22.83;12.27;;;;;;;;;;4874953;29;20073;-79
2022/06/23 05:38:33;;;;;;;35.53;13.18;;;;;;;;;;4890101;29;20486;-80
2022/06/23 05:41:03;;;;;;;22.45;12.43;;;;;;;;;;4890143;29;20071;-80
2022/06/23 05:43:33;;;;;;;24.33;12.70;;;;;;;;;;4876332;29;20104;-81
2022/06/23 05:46:02;;;;;;;19.75;11.73;;;;;;;;;;4887358;29;20071;-82
2022/06/23 05:48:37;;;;;;;24.80;12.93;;;;;;;;;;4877305;29;20135;-81
2022/06/23 05:51:11;;;;;;;21.40;12.40;;;;;;;;;;4892759;29;20170;-81
2022/06/23 05:53:41;;;;;;;21.70;11.70;;;;;;;;;;4891437;29;20053;-81
2022/06/23 05:56:23;;;;;;;19.38;10.85;;;;;;;;;;4875319;29;20096;-81
2022/06/23 05:58:55;;;;;;;15.60;10.20;;;;;;;;;;4877965;29;20112;-82
2022/06/23 06:01:31;;;;;;;28.33;11.77;;;;;;;;;;4891570;29;20052;-81
2022/06/23 06:04:11;;;;;;;19.88;11.98;;;;;;;;;;4875774;29;20242;-82
2022/06/23 06:06:39;;;;;;;19.65;11.20;;;;;;;;;;4888874;29;20061;-81
2022/06/23 06:11:56;;;;;;;20.08;9.30;;;;;;;;;;4894033;29;20179;-81
2022/06/23 06:14:26;;;;;;;14.48;7.43;;;;;;;;;;4867329;29;20095;-82
2022/06/23 06:16:56;;;;;;;9.45;6.18;;;;;;;;;;4865894;29;20048;-82
2022/06/23 06:19:26;;;;;;;10.35;5.53;;;;;;;;;;4895325;29;20056;-82
2022/06/23 06:21:56;;;;;;;11.77;4.97;;;;;;;;;;4878333;29;20052;-82
2022/06/23 06:24:28;;;;;;;9.77;5.30;;;;;;;;;;4878965;29;20059;-82
2022/06/23 06:26:56;;;;;;;8.25;4.82;;;;;;;;;;4894821;29;20092;-82
2022/06/23 06:29:26;;;;;;;11.02;4.57;;;;;;;;;;4893436;29;20080;-82
2022/06/23 06:32:02;;;;;;;10.43;5.60;;;;;;;;;;4895559;29;20120;-82
2022/06/23 06:34:33;;;;;;;17.23;3.63;;;;;;;;;;4895031;29;20648;-82
2022/06/23 06:37:01;;;;;;;6.15;3.83;;;;;;;;;;4898573;29;20094;-82
2022/06/23 06:39:36;;;;;;;6.13;3.95;;;;;;;;;;4898283;29;20111;-82
2022/06/23 06:42:06;;;;;;;7.70;4.13;;;;;;;;;;4881597;29;20115;-82
2022/06/23 06:44:34;;;;;;;11.68;4.22;;;;;;;;;;4879262;29;20084;-82
2022/06/23 06:47:02;;;;;;;8.65;3.40;;;;;;;;;;4878555;29;20084;-82
2022/06/23 06:49:30;;;;;;;6.60;3.38;;;;;;;;;;4881836;29;20061;-82
2022/06/23 06:51:58;;;;;;;6.63;3.00;;;;;;;;;;4896712;29;20102;-82
2022/06/23 06:54:29;;;;;;;6.20;3.30;;;;;;;;;;4882177;29;20053;-82
2022/06/23 06:56:57;;;;;;;9.60;4.13;;;;;;;;;;4880512;29;20109;-83
2022/06/23 06:59:33;;;;;;;5.88;3.13;;;;;;;;;;4877496;29;20144;-82
2022/06/23 07:02:04;;;;;;;4.85;2.97;;;;;;;;;;4888760;29;20091;-82
2022/06/23 07:04:38;;;;;;;6.93;2.60;;;;;;;;;;4881599;29;20123;-82
2022/06/23 07:07:07;;;;;;;3.92;2.00;;;;;;;;;;4898398;29;20060;-82
2022/06/23 07:09:54;;;;;;;5.03;2.60;;;;;;;;;;4888079;29;20085;-82
2022/06/23 07:12:43;;;;;;;5.53;2.50;;;;;;;;;;4890219;29;20061;-82
2022/06/23 07:15:22;;;;;;;4.05;2.63;;;;;;;;;;4898058;29;20057;-83
2022/06/23 07:17:53;;;;;;;8.27;2.50;;;;;;;;;;4896248;29;20124;-82
2022/06/23 07:20:20;;;;;;;8.77;2.28;;;;;;;;;;4897879;29;20087;-81
2022/06/23 07:22:51;;;;;;;8.50;2.42;;;;;;;;;;4898061;29;20048;-82
2022/06/23 07:25:24;;;;;;;4.97;2.30;;;;;;;;;;4878064;29;20112;-81
2022/06/23 07:27:56;;;;;;;3.38;2.45;;;;;;;;;;4897717;29;20083;-81
2022/06/23 07:30:23;;;;;;;4.38;2.50;;;;;;;;;;4897680;29;20119;-82
2022/06/23 07:33:01;;;;;;;4.55;2.30;;;;;;;;;;4897823;29;20056;-82
2022/06/23 07:35:37;;;;;;;4.07;2.10;;;;;;;;;;4880855;29;20061;-82
2022/06/23 07:38:13;;;;;;;6.47;2.50;;;;;;;;;;4881225;29;20076;-82
2022/06/23 07:40:49;;;;;;;5.57;2.50;;;;;;;;;;4897443;29;20095;-82
2022/06/23 07:43:33;;;;;;;6.75;2.75;;;;;;;;;;4881396;29;20059;-82
2022/06/23 07:46:01;;;;;;;5.47;2.03;;;;;;;;;;4896771;29;20053;-82
2022/06/23 07:48:31;;;;;;;7.50;2.60;;;;;;;;;;4897619;29;20177;-82
2022/06/23 07:50:58;;;;;;;6.57;2.47;;;;;;;;;;4897634;29;20103;-83
2022/06/23 07:53:29;;;;;;;7.78;2.35;;;;;;;;;;4897499;29;20080;-82
2022/06/23 07:55:57;;;;;;;23.10;2.90;;;;;;;;;;4881045;29;20459;-82
2022/06/23 07:58:26;;;;;;;19.77;2.78;;;;;;;;;;4896978;29;20112;-82
2022/06/23 08:00:59;;;;;;;4.60;1.98;;;;;;;;;;4897178;29;20088;-82
2022/06/23 08:03:39;;;;;;;7.07;1.90;;;;;;;;;;4897251;29;20459;-82
2022/06/23 08:06:09;;;;;;;4.40;2.30;;;;;;;;;;4897323;29;20084;-82
2022/06/23 08:08:38;;;;;;;6.05;2.05;;;;;;;;;;4890134;29;20160;-82
2022/06/23 08:14:18;;;;;;;4.60;1.70;;;;;;;;;;4883863;29;20056;-81
2022/06/23 08:16:51;;;;;;;6.25;2.05;;;;;;;;;;4895918;29;20072;-82
2022/06/23 08:19:24;;;;;;;2.72;1.60;;;;;;;;;;4897173;29;20052;-82
2022/06/23 08:21:54;;;;;;;6.95;1.95;;;;;;;;;;4896999;29;20144;-82
2022/06/23 08:24:26;;;;;;;2.58;1.52;;;;;;;;;;4897139;29;20083;-82
2022/06/23 08:26:59;;;;;;;7.38;1.50;;;;;;;;;;4880448;29;20486;-82
2022/06/23 08:29:31;;;;;;;2.72;1.15;;;;;;;;;;4896139;29;20135;-82
2022/06/23 08:31:59;;;;;;;3.85;1.70;;;;;;;;;;4896977;29;20048;-82
2022/06/23 08:34:30;;;;;;;3.83;1.50;;;;;;;;;;4879922;29;20132;-82
2022/06/23 08:37:05;;;;;;;7.38;1.60;;;;;;;;;;4879710;29;20068;-82
2022/06/23 08:39:39;;;;;;;8.52;1.70;;;;;;;;;;4880232;29;20060;-82
2022/06/23 08:42:09;;;;;;;3.77;1.80;;;;;;;;;;4896432;29;20084;-82
2022/06/23 08:44:37;;;;;;;4.22;1.50;;;;;;;;;;4896554;29;20060;-82
2022/06/23 08:47:13;;;;;;;3.20;1.85;;;;;;;;;;4897000;29;20055;-82
2022/06/23 08:49:48;;;;;;;3.42;1.33;;;;;;;;;;4896345;29;20052;-82
2022/06/23 08:52:19;;;;;;;5.13;1.23;;;;;;;;;;4879584;29;20625;-82
2022/06/23 08:54:50;;;;;;;2.15;1.40;;;;;;;;;;4896277;29;20399;-82
2022/06/23 08:57:35;;;;;;;6.55;1.52;;;;;;;;;;4880223;29;20055;-82
2022/06/23 09:00:03;;;;;;;3.50;1.45;;;;;;;;;;4896199;29;20116;-82
2022/06/23 09:02:50;;;;;;;4.97;1.70;;;;;;;;;;4876020;29;20045;-82
2022/06/23 09:05:34;;;;;;;2.22;1.10;;;;;;;;;;4877987;29;20052;-82
2022/06/23 09:08:18;;;;;;;4.22;1.63;;;;;;;;;;4874948;29;20132;-82
2022/06/23 09:11:09;;;;;;;1.20;1.05;;;;;;;;;;4864207;29;20484;-82
2022/06/23 09:13:36;;;;;;;2.17;1.10;;;;;;;;;;4880104;29;20084;-82
2022/06/23 09:16:04;;;;;;;2.65;1.13;;;;;;;;;;4895388;29;20518;-82
2022/06/23 09:18:46;;;;;;;1.98;1.30;;;;;;;;;;4894990;29;20409;-82
2022/06/23 09:21:25;;;;;;;6.90;1.33;;;;;;;;;;4914361;29;20087;-82
2022/06/23 09:24:09;;;;;;;3.28;1.60;;;;;;;;;;4897297;29;20067;-82
2022/06/23 09:26:56;;;;;;;4.47;1.17;;;;;;;;;;4879607;29;20056;-82
2022/06/23 09:29:42;;;;;;;4.05;1.48;;;;;;;;;;4879289;29;20096;-82
2022/06/23 09:32:11;;;;;;;4.38;1.38;;;;;;;;;;4886319;29;20084;-82
2022/06/23 09:34:50;;;;;;;3.97;1.35;;;;;;;;;;4879246;29;20056;-82
2022/06/23 09:37:18;;;;;;;2.72;1.30;;;;;;;;;;4893993;29;20143;-82
2022/06/23 09:40:04;;;;;;;4.07;1.48;;;;;;;;;;4895837;29;20056;-83
2022/06/23 09:42:54;;;;;;;4.07;1.23;;;;;;;;;;4895971;29;20454;-82
2022/06/23 09:45:28;;;;;;;2.97;1.27;;;;;;;;;;4894821;29;20056;-82
2022/06/23 09:48:08;;;;;;;1.33;1.23;;;;;;;;;;4896126;29;20924;-82
2022/06/23 09:50:42;;;;;;;11.20;1.50;;;;;;;;;;4895660;29;20055;-82
2022/06/23 09:53:10;;;;;;;1.75;1.00;;;;;;;;;;4881714;29;20060;-83
2022/06/23 09:55:47;;;;;;;4.72;1.23;;;;;;;;;;4876183;29;20455;-82
2022/06/23 09:58:27;;;;;;;2.75;1.00;;;;;;;;;;4878492;29;20474;-82
2022/06/23 10:01:08;;;;;;;2.72;1.20;;;;;;;;;;4895137;29;20203;-83
2022/06/23 10:03:41;;;;;;;2.90;1.40;;;;;;;;;;4878986;29;20056;-83
2022/06/23 10:06:11;;;;;;;2.97;0.93;;;;;;;;;;4896170;29;20080;-83
2022/06/23 10:08:57;;;;;;;2.83;1.27;;;;;;;;;;4895730;29;20837;-83
2022/06/23 10:11:40;;;;;;;5.18;0.93;;;;;;;;;;4898991;29;20732;-83
2022/06/23 10:14:20;;;;;;;5.10;1.10;;;;;;;;;;4887382;29;20057;-82
2022/06/23 10:17:06;;;;;;;3.72;1.13;;;;;;;;;;4864427;29;20077;-82
2022/06/23 10:19:52;;;;;;;7.13;1.30;;;;;;;;;;4880573;29;20083;-82
2022/06/23 10:22:19;;;;;;;1.35;0.98;;;;;;;;;;4880290;29;20053;-82
2022/06/23 10:25:16;;;;;;;0.88;0.88;;;;;;;;;;4871549;29;20131;-83
2022/06/23 10:27:58;;;;;;;2.22;1.17;;;;;;;;;;4886676;29;20090;-83
2022/06/23 10:30:35;;;;;;;2.38;1.02;;;;;;;;;;4885682;29;20164;-83
2022/06/23 10:33:12;;;;;;;1.67;1.00;;;;;;;;;;4882308;29;20056;-82
2022/06/23 10:35:48;;;;;;;1.20;1.10;;;;;;;;;;4898694;29;20079;-82
2022/06/23 10:38:31;;;;;;;2.08;1.10;;;;;;;;;;4884330;29;20087;-82
2022/06/23 10:41:10;;;;;;;2.95;1.10;;;;;;;;;;4880212;29;20104;-83
2022/06/23 10:43:47;;;;;;;1.17;0.90;;;;;;;;;;4898027;29;20088;-82
2022/06/23 10:46:14;;;;;;;3.55;0.90;;;;;;;;;;4897509;29;20061;-83
2022/06/23 10:48:44;;;;;;;2.08;0.95;;;;;;;;;;4899293;29;20148;-83
2022/06/23 10:51:27;;;;;;;5.13;1.08;;;;;;;;;;4885162;29;20117;-83
2022/06/23 10:53:55;;;;;;;2.13;1.25;;;;;;;;;;4881505;29;20053;-83
2022/06/23 10:56:22;;;;;;;14.88;2.10;;;;;;;;;;4863386;29;20061;-83
2022/06/23 10:58:52;;;;;;;8.98;1.48;;;;;;;;;;4869620;29;20095;-83
2022/06/23 11:01:22;;;;;;;3.03;1.00;;;;;;;;;;4881765;29;20048;-82
2022/06/23 11:03:59;;;;;;;2.42;0.98;;;;;;;;;;4879007;29;20053;-82
2022/06/23 11:06:42;;;;;;;4.72;1.00;;;;;;;;;;4879428;29;20052;-83
2022/06/23 11:09:27;;;;;;;2.97;1.00;;;;;;;;;;4880269;29;20061;-82
2022/06/23 11:12:12;;;;;;;3.63;0.93;;;;;;;;;;4898755;29;20084;-82
2022/06/23 11:14:52;;;;;;;3.15;1.38;;;;;;;;;;4897065;29;20052;-83
2022/06/23 11:17:19;;;;;;;4.30;1.35;;;;;;;;;;4896841;29;20076;-83
2022/06/23 11:20:05;;;;;;;5.13;1.00;;;;;;;;;;4897077;29;20050;-83
2022/06/23 11:22:51;;;;;;;3.65;1.10;;;;;;;;;;4897192;29;20109;-82
2022/06/23 11:25:40;;;;;;;2.45;0.90;;;;;;;;;;4896576;29;20052;-83
2022/06/23 11:28:35;;;;;;;6.45;0.85;;;;;;;;;;4897722;29;20501;-83
2022/06/23 11:31:05;;;;;;;7.60;0.70;;;;;;;;;;4881099;29;20056;-83
2022/06/23 11:33:48;;;;;;;3.35;1.20;;;;;;;;;;4896742;29;20155;-82
2022/06/23 11:36:18;;;;;;;3.72;1.10;;;;;;;;;;4897875;29;20052;-82
2022/06/23 11:38:48;;;;;;;2.28;0.88;;;;;;;;;;4898056;29;20048;-82
2022/06/23 11:41:36;;;;;;;5.18;1.20;;;;;;;;;;4885435;29;20494;-83
2022/06/23 11:44:22;;;;;;;1.58;0.90;;;;;;;;;;4832784;29;20459;-82
2022/06/23 11:46:56;;;;;;;6.40;1.80;;;;;;;;;;4881454;29;20080;-83
2022/06/23 11:49:31;;;;;;;1.27;0.90;;;;;;;;;;4905125;29;20387;-83
2022/06/23 11:52:06;;;;;;;2.30;0.88;;;;;;;;;;4897796;29;20056;-83
2022/06/23 11:54:48;;;;;;;2.78;0.55;;;;;;;;;;4896549;29;20143;-82
2022/06/23 11:57:25;;;;;;;4.30;0.95;;;;;;;;;;4897724;29;20048;-83
2022/06/23 12:00:13;;;;;;;1.70;0.90;;;;;;;;;;4897049;29;20090;-83
2022/06/23 12:03:03;;;;;;;1.90;0.90;;;;;;;;;;4896897;29;20055;-83
2022/06/23 12:05:42;;;;;;;0.95;0.80;;;;;;;;;;4880649;29;20835;-83
2022/06/23 12:08:10;;;;;;;2.08;1.02;;;;;;;;;;4897382;29;20108;-82
2022/06/23 12:10:37;;;;;;;1.98;0.80;;;;;;;;;;4877833;29;20497;-83
2022/06/23 12:13:06;;;;;;;3.28;1.08;;;;;;;;;;4879029;29;20141;-83
2022/06/23 12:15:35;;;;;;;29.58;2.78;;;;;;;;;;4880263;29;20445;-83
2022/06/23 12:18:05;;;;;;;7.10;1.35;;;;;;;;;;4896383;29;20143;-83
2022/06/23 12:20:51;;;;;;;3.03;0.60;;;;;;;;;;4880048;29;20053;-83
2022/06/23 12:23:46;;;;;;;3.88;0.98;;;;;;;;;;4897455;29;20076;-83
2022/06/23 12:26:13;;;;;;;1.85;0.73;;;;;;;;;;4890536;29;20059;-83
2022/06/23 12:28:43;;;;;;;3.05;0.80;;;;;;;;;;4887728;29;20105;-83
2022/06/23 12:31:10;;;;;;;1.75;0.70;;;;;;;;;;4902071;29;20785;-83
2022/06/23 12:33:43;;;;;;;3.25;0.90;;;;;;;;;;4884978;29;20526;-83
2022/06/23 12:36:25;;;;;;;6.22;1.25;;;;;;;;;;4896594;29;20057;-88
2022/06/23 12:38:57;;;;;;;0.57;0.57;;;;;;;;;;4892614;29;20131;-81
2022/06/23 12:41:30;;;;;;;1.77;0.90;;;;;;;;;;4877166;29;20118;-81
2022/06/23 12:44:18;;;;;;;10.70;1.05;;;;;;;;;;4874416;29;20135;-78
2022/06/23 12:46:53;;;;;;;16.45;1.17;;;;;;;;;;4890585;29;20056;-81
2022/06/23 12:49:39;;;;;;;9.80;0.82;;;;;;;;;;4891574;29;20056;-79
2022/06/23 12:52:06;;;;;;;1.80;0.60;;;;;;;;;;4878224;29;20056;-81
2022/06/23 12:55:00;;;;;;;2.28;0.70;;;;;;;;;;4872686;29;20060;-80
2022/06/23 12:57:50;;;;;;;1.23;0.73;;;;;;;;;;4890088;29;20056;-80
2022/06/23 13:00:43;;;;;;;1.13;0.50;;;;;;;;;;4892322;29;20086;-79
2022/06/23 13:03:17;;;;;;;4.07;0.50;;;;;;;;;;4873797;29;20048;-79
2022/06/23 13:05:50;;;;;;;3.47;0.63;;;;;;;;;;4875447;29;20095;-80
2022/06/23 13:08:23;;;;;;;1.60;0.60;;;;;;;;;;4890193;29;20127;-79
2022/06/23 13:10:53;;;;;;;2.17;0.63;;;;;;;;;;4891836;29;20136;-79
2022/06/23 13:13:26;;;;;;;6.72;1.23;;;;;;;;;;4876470;29;20056;-79
2022/06/23 13:15:59;;;;;;;1.67;0.75;;;;;;;;;;4893102;29;20076;-80
2022/06/23 13:18:46;;;;;;;0.65;0.60;;;;;;;;;;4877955;29;20754;-79
2022/06/23 13:21:16;;;;;;;0.88;0.65;;;;;;;;;;4872211;29;20080;-79
2022/06/23 13:23:45;;;;;;;3.70;0.70;;;;;;;;;;4892928;29;20565;-81
2022/06/23 13:26:15;;;;;;;39.40;5.50;;;;;;;;;;4874409;29;20087;-83
2022/06/23 13:28:44;;;;;;;14.00;1.38;;;;;;;;;;4893211;29;20108;-81
2022/06/23 13:31:20;;;;;;;18.08;2.47;;;;;;;;;;4867621;29;20084;-81
2022/06/23 13:33:55;;;;;;;11.40;1.95;;;;;;;;;;4882051;29;20143;-82
2022/06/23 13:36:42;;;;;;;1.48;0.88;;;;;;;;;;4880790;29;20087;-81
2022/06/23 13:39:28;;;;;;;2.42;1.40;;;;;;;;;;4880258;29;20144;-85
2022/06/23 13:42:01;;;;;;;2.28;0.77;;;;;;;;;;4883302;29;20084;-83
2022/06/23 13:44:29;;;;;;;2.97;0.73;;;;;;;;;;4891008;29;20742;-83
2022/06/23 13:47:01;;;;;;;1.60;0.70;;;;;;;;;;4893054;29;20136;-84
2022/06/23 13:49:34;;;;;;;1.17;0.88;;;;;;;;;;4878302;29;20080;-81
2022/06/23 13:52:20;;;;;;;2.33;0.70;;;;;;;;;;4875165;29;20080;-81
2022/06/23 13:54:52;;;;;;;1.20;0.90;;;;;;;;;;4893646;29;20080;-81
2022/06/23 13:57:38;;;;;;;1.85;0.95;;;;;;;;;;4876327;29;20076;-79
2022/06/23 14:00:05;;;;;;;1.50;0.70;;;;;;;;;;4890001;29;20076;-79
2022/06/23 14:02:51;;;;;;;0.73;0.50;;;;;;;;;;4885988;29;20415;-79
2022/06/23 14:05:31;;;;;;;16.90;0.90;;;;;;;;;;4885899;29;20802;-80
2022/06/23 14:08:01;;;;;;;1.13;0.80;;;;;;;;;;4898907;29;20486;-79
2022/06/23 14:10:56;;;;;;;0.77;0.52;;;;;;;;;;4884590;29;21701;-81
2022/06/23 14:13:36;;;;;;;1.65;0.57;;;;;;;;;;4894115;29;20071;-80
2022/06/23 14:16:26;;;;;;;2.67;0.77;;;;;;;;;;4889897;29;20470;-78
2022/06/23 14:19:05;;;;;;;1.25;0.80;;;;;;;;;;4865214;29;20143;-78
2022/06/23 14:21:50;;;;;;;1.45;0.82;;;;;;;;;;4873138;29;20128;-78
2022/06/23 14:24:21;;;;;;;2.60;0.98;;;;;;;;;;4888380;29;20172;-78
2022/06/23 14:26:54;;;;;;;1.23;0.75;;;;;;;;;;4874726;29;20960;-79
2022/06/23 14:29:35;;;;;;;1.83;0.77;;;;;;;;;;4890814;29;20076;-79
2022/06/23 14:32:14;;;;;;;1.42;0.80;;;;;;;;;;4890647;29;20611;-79
2022/06/23 14:34:54;;;;;;;2.75;1.00;;;;;;;;;;4889550;29;20740;-78
2022/06/23 14:37:27;;;;;;;1.63;1.05;;;;;;;;;;4887449;29;20703;-78
2022/06/23 14:39:57;;;;;;;5.95;0.82;;;;;;;;;;4889574;29;20420;-79
2022/06/23 14:42:38;;;;;;;6.63;1.67;;;;;;;;;;4891316;29;20075;-79
2022/06/23 14:45:26;;;;;;;2.83;0.95;;;;;;;;;;4872426;29;20053;-79
2022/06/23 14:48:05;;;;;;;8.23;1.52;;;;;;;;;;4888926;29;20530;-77
2022/06/23 14:50:53;;;;;;;1.35;0.70;;;;;;;;;;4888377;29;20135;-77
2022/06/23 14:53:27;;;;;;;1.08;0.70;;;;;;;;;;4873628;29;20052;-77
2022/06/23 14:56:05;;;;;;;12.85;1.25;;;;;;;;;;4887472;29;20454;-78
2022/06/23 14:58:48;;;;;;;3.78;1.15;;;;;;;;;;4890463;29;20055;-78
2022/06/23 15:01:15;;;;;;;4.47;1.10;;;;;;;;;;4892724;29;20040;-79
2022/06/23 15:03:43;;;;;;;1.90;0.73;;;;;;;;;;4893447;29;20048;-79
2022/06/23 15:06:34;;;;;;;4.60;0.80;;;;;;;;;;4894806;29;20057;-78
2022/06/23 15:09:29;;;;;;;3.22;1.33;;;;;;;;;;4892083;29;20049;-78
2022/06/23 15:12:00;;;;;;;1.45;0.98;;;;;;;;;;4820417;29;20140;-78
2022/06/23 15:14:50;;;;;;;2.17;0.80;;;;;;;;;;4887928;29;20124;-78
2022/06/23 15:17:23;;;;;;;1.08;0.70;;;;;;;;;;4894226;29;20108;-79
2022/06/23 15:19:59;;;;;;;1.92;0.50;;;;;;;;;;4892688;29;20083;-79
2022/06/23 15:25:19;;;;;;;1.85;0.75;;;;;;;;;;4888738;29;20127;-77
2022/06/23 15:27:53;;;;;;;1.77;0.50;;;;;;;;;;4887898;29;20132;-79
2022/06/23 15:30:30;;;;;;;2.73;0.77;;;;;;;;;;4896823;29;20792;-79
2022/06/23 15:33:04;;;;;;;1.60;0.70;;;;;;;;;;4893701;29;20095;-78
2022/06/23 15:35:46;;;;;;;1.35;0.70;;;;;;;;;;4878452;29;20088;-78
2022/06/23 15:38:22;;;;;;;4.55;0.85;;;;;;;;;;4896386;29;20084;-82